Time;durP1;ratioP1;P1;durP2;ratioP2;P2;SDS_P1;SDS_P2;PMS_P1;PMS_P2;Temp;Humidity;BMP_temperature;BMP_pressure;BME280_temperature;BME280_humidity;BME280_pressure;Samples;Min_cycle;Max_cycle;Signal;HPM_P1;HPM_P2
2024/04/17 00:01:43;;;;;;;7.57;6.30;;;7.90;99.90;;;7.86;86.28;98045.44;5365595;26;20525;-70
2024/04/17 00:04:08;;;;;;;9.13;6.77;;;7.90;99.90;;;7.84;86.14;98042.09;5378153;26;20480;-71
2024/04/17 00:06:35;;;;;;;8.67;7.03;;;8.00;99.90;;;7.89;86.24;98045.19;5377858;26;20251;-70
2024/04/17 00:09:01;;;;;;;8.90;7.00;;;7.90;99.90;;;7.91;86.17;98045.88;5376197;26;20278;-70
2024/04/17 00:11:27;;;;;;;9.40;7.77;;;8.00;99.90;;;7.95;85.42;98043.88;5373905;26;20540;-71
2024/04/17 00:13:52;;;;;;;10.23;7.53;;;8.00;99.90;;;7.96;85.80;98045.53;5373749;26;20490;-71
2024/04/17 00:16:18;;;;;;;9.70;8.10;;;8.00;99.90;;;7.92;85.46;98038.88;5379785;26;20348;-70
2024/04/17 00:18:44;;;;;;;11.03;8.33;;;8.00;99.90;;;7.72;86.67;98041.31;5379946;26;21171;-69
2024/04/17 00:21:10;;;;;;;11.20;8.67;;;7.90;99.90;;;7.69;87.03;98035.50;5359958;26;20252;-70
2024/04/17 00:23:35;;;;;;;9.40;8.00;;;7.90;99.90;;;7.67;87.86;98033.03;5376881;26;20256;-67
2024/04/17 00:26:01;;;;;;;9.73;8.10;;;7.90;99.90;;;7.69;87.86;98031.09;5366015;26;20634;-68
2024/04/17 00:28:28;;;;;;;10.03;7.90;;;7.90;99.90;;;7.79;87.44;98039.88;5362010;26;20236;-70
2024/04/17 00:30:54;;;;;;;11.77;8.47;;;7.90;99.90;;;7.73;88.57;98039.53;5371444;26;20530;-69
2024/04/17 00:33:20;;;;;;;11.27;8.00;;;8.50;99.90;;;7.60;89.06;98035.31;5381145;26;20239;-70
2024/04/17 00:35:46;;;;;;;9.73;7.67;;;7.80;99.90;;;7.64;89.14;98035.88;5373504;26;20577;-69
2024/04/17 00:38:12;;;;;;;10.27;8.03;;;7.80;99.90;;;7.62;89.51;98032.53;5375511;26;20467;-71
2024/04/17 00:40:38;;;;;;;10.70;7.90;;;7.80;99.90;;;7.68;89.52;98045.13;5363884;26;20247;-72
2024/04/17 00:43:04;;;;;;;9.90;7.77;;;7.80;99.90;;;7.61;90.34;98034.34;5372258;26;20293;-70
2024/04/17 00:45:37;;;;;;;8.87;7.30;;;7.80;99.90;;;7.55;90.61;98039.22;5382503;26;20357;-71
2024/04/17 00:48:07;;;;;;;8.50;7.30;;;7.80;99.90;;;7.45;91.68;98040.91;5353888;26;21057;-64
2024/04/17 00:50:34;;;;;;;11.43;7.63;;;7.70;99.90;;;7.50;91.32;98028.28;5399271;26;20521;-65
2024/04/17 00:53:02;;;;;;;9.67;7.27;;;7.70;99.90;;;7.39;92.01;98030.00;5374264;26;20459;-71
2024/04/17 00:55:28;;;;;;;8.00;6.60;;;7.70;99.90;;;7.39;92.06;98026.56;5366034;26;20478;-71
2024/04/17 00:57:56;;;;;;;8.10;6.30;;;7.60;99.90;;;7.45;91.97;98020.00;5376108;26;20766;-70
2024/04/17 01:00:22;;;;;;;8.93;6.23;;;7.60;99.90;;;7.54;91.57;98027.13;5366452;26;20617;-65
2024/04/17 01:02:48;;;;;;;7.17;6.07;;;7.70;99.90;;;7.51;91.54;98029.97;5364839;26;20552;-69
2024/04/17 01:05:14;;;;;;;7.40;5.87;;;7.70;99.90;;;7.47;91.64;98034.63;5382377;26;20468;-70
2024/04/17 01:07:41;;;;;;;6.90;5.10;;;7.70;99.90;;;7.42;91.46;98037.59;5362812;26;20712;-70
2024/04/17 01:10:09;;;;;;;7.43;5.60;;;7.60;99.90;;;7.49;91.49;98035.31;5375189;26;20486;-68
2024/04/17 01:12:36;;;;;;;6.47;5.30;;;8.30;99.90;;;7.55;91.23;98034.81;5352519;26;20527;-70
2024/04/17 01:15:08;;;;;;;6.90;5.50;;;7.60;99.90;;;7.62;90.95;98032.53;5371327;26;20591;-69
2024/04/17 01:17:34;;;;;;;6.50;5.17;;;7.70;99.90;;;7.59;91.07;98032.78;5373782;26;20489;-70
2024/04/17 01:20:00;;;;;;;8.93;5.60;;;7.70;99.90;;;7.57;90.90;98026.88;5372627;26;20539;-68
2024/04/17 01:22:26;;;;;;;5.60;4.47;;;7.70;99.90;;;7.60;90.76;98031.84;5344360;26;20687;-72
2024/04/17 01:24:51;;;;;;;6.77;4.40;;;7.70;99.90;;;7.56;90.76;98038.25;5368889;26;20893;-70
2024/04/17 01:27:17;;;;;;;4.80;3.80;;;7.70;99.90;;;7.52;91.51;98029.03;5372762;26;20281;-70
2024/04/17 01:29:43;;;;;;;5.37;3.80;;;7.70;99.90;;;7.55;90.88;98029.59;5361427;26;20258;-68
2024/04/17 01:32:08;;;;;;;5.93;3.80;;;7.60;99.90;;;7.43;90.93;98033.19;5367682;26;20259;-66
2024/04/17 01:34:34;;;;;;;4.57;3.50;;;7.60;99.90;;;7.36;91.14;98030.22;5375654;26;20248;-71
2024/04/17 01:37:00;;;;;;;4.53;3.70;;;7.60;99.90;;;7.39;91.05;98037.81;5365957;26;20290;-70
2024/04/17 01:39:26;;;;;;;5.10;3.57;;;7.60;99.90;;;7.40;90.88;98039.47;5366846;26;20285;-69
2024/04/17 01:41:52;;;;;;;4.37;3.37;;;7.60;99.90;;;7.38;90.78;98040.56;5372544;26;20487;-69
2024/04/17 01:44:17;;;;;;;5.37;3.40;;;7.50;99.90;;;7.39;91.22;98048.28;5375762;26;20325;-71
2024/04/17 01:46:43;;;;;;;4.60;3.60;;;7.50;99.90;;;7.40;91.43;98049.94;5356768;26;20651;-70
2024/04/17 01:49:09;;;;;;;5.10;3.40;;;7.50;99.90;;;7.51;91.69;98048.28;5382122;26;20250;-69
2024/04/17 01:51:35;;;;;;;4.13;3.13;;;7.60;99.90;;;7.52;91.82;98053.34;5372329;26;20237;-70
2024/04/17 01:54:00;;;;;;;4.60;3.13;;;7.60;99.90;;;7.50;91.63;98049.19;5372265;26;20247;-69
2024/04/17 01:56:26;;;;;;;4.13;3.00;;;7.60;99.90;;;7.45;90.94;98056.59;5374207;26;20576;-69
2024/04/17 01:58:52;;;;;;;3.93;2.90;;;7.60;99.90;;;7.48;90.09;98057.19;5376611;26;20246;-69
2024/04/17 02:01:18;;;;;;;3.83;2.90;;;7.60;99.90;;;7.39;90.12;98056.13;5376955;26;20244;-70
2024/04/17 02:03:44;;;;;;;3.90;3.07;;;7.60;99.90;;;7.42;89.80;98058.47;5380736;26;20746;-70
2024/04/17 02:06:10;;;;;;;5.00;3.33;;;7.50;99.90;;;7.53;89.80;98056.78;5377129;26;20246;-69
2024/04/17 02:08:35;;;;;;;3.23;2.83;;;7.60;99.90;;;7.56;89.99;98060.00;5385614;26;20522;-69
2024/04/17 02:11:03;;;;;;;3.53;2.90;;;7.60;99.90;;;7.60;90.14;98055.38;5376033;26;20570;-61
2024/04/17 02:13:29;;;;;;;3.80;3.00;;;8.70;99.90;;;7.65;90.11;98051.41;5378911;26;20294;-70
2024/04/17 02:16:04;;;;;;;4.03;2.97;;;7.70;99.90;;;7.63;89.35;98061.19;5375922;26;20474;-68
2024/04/17 02:18:33;;;;;;;8.13;3.60;;;7.70;99.90;;;7.47;89.74;98065.13;5374937;26;20314;-69
2024/04/17 02:20:59;;;;;;;3.80;3.10;;;7.90;99.90;;;7.54;89.32;98063.72;5347758;26;20493;-69
2024/04/17 02:23:28;;;;;;;4.47;3.40;;;7.60;99.90;;;7.57;89.17;98066.06;5374236;26;20532;-71
2024/04/17 02:25:55;;;;;;;4.47;3.07;;;7.60;99.90;;;7.60;89.42;98061.44;5375998;26;20485;-69
2024/04/17 02:28:21;;;;;;;4.57;2.90;;;7.60;99.90;;;7.59;89.68;98064.97;5412689;26;20535;-70
2024/04/17 02:30:47;;;;;;;3.70;2.80;;;7.60;99.90;;;7.51;89.42;98066.56;5367987;26;20481;-69
2024/04/17 02:33:13;;;;;;;3.43;2.80;;;8.30;99.90;;;7.45;89.43;98067.88;5367129;26;20281;-67
2024/04/17 02:35:39;;;;;;;4.50;2.63;;;7.60;99.90;;;7.42;89.58;98071.53;5377465;26;20747;-70
2024/04/17 02:38:04;;;;;;;4.87;2.83;;;7.50;99.90;;;7.51;89.97;98066.56;5389387;26;21119;-69
2024/04/17 02:40:30;;;;;;;4.03;2.80;;;7.60;99.90;;;7.55;90.07;98071.41;5378389;26;20255;-70
2024/04/17 02:42:56;;;;;;;4.23;2.50;;;7.60;99.90;;;7.60;90.10;98071.06;5343745;26;20244;-70
2024/04/17 02:45:22;;;;;;;3.83;2.93;;;7.60;99.90;;;7.51;89.57;98072.63;5372527;26;20245;-70
2024/04/17 02:47:47;;;;;;;3.50;2.60;;;7.60;99.90;;;7.59;89.30;98074.59;5376012;26;21964;-69
2024/04/17 02:50:14;;;;;;;3.77;2.77;;;7.60;99.90;;;7.43;89.27;98077.59;5371618;26;20252;-68
2024/04/17 02:52:39;;;;;;;4.33;2.83;;;7.60;99.90;;;7.43;89.28;98074.97;5350670;26;20254;-69
2024/04/17 02:55:05;;;;;;;3.93;3.00;;;7.50;99.90;;;7.40;89.17;98068.22;5363094;26;20537;-68
2024/04/17 02:57:31;;;;;;;4.93;2.70;;;7.50;99.90;;;7.23;89.06;98079.16;5375724;26;20244;-70
2024/04/17 02:59:57;;;;;;;4.53;3.20;;;7.40;99.90;;;7.22;90.33;98084.50;5400992;26;20473;-70
2024/04/17 03:02:23;;;;;;;4.47;3.10;;;7.50;99.90;;;7.34;90.85;98086.97;5376992;26;20246;-70
2024/04/17 03:04:49;;;;;;;3.07;2.60;;;7.50;99.90;;;7.37;90.73;98083.31;5378829;26;20589;-69
2024/04/17 03:07:15;;;;;;;3.87;3.00;;;7.50;99.90;;;7.41;90.39;98089.97;5364985;26;20290;-69
2024/04/17 03:09:41;;;;;;;3.33;2.53;;;7.50;99.90;;;7.48;90.67;98085.91;5376950;26;21060;-68
2024/04/17 03:12:07;;;;;;;3.67;3.00;;;7.50;99.90;;;7.40;90.53;98090.91;5380972;26;20355;-69
2024/04/17 03:14:33;;;;;;;3.73;2.80;;;7.50;99.90;;;7.45;91.19;98082.72;5376060;26;20243;-69
2024/04/17 03:16:59;;;;;;;4.00;3.10;;;7.50;99.90;;;7.32;90.74;98091.50;5347220;26;20552;-68
2024/04/17 03:19:25;;;;;;;3.80;2.83;;;7.50;99.90;;;7.41;90.62;98093.41;5369460;26;20248;-69
2024/04/17 03:21:50;;;;;;;4.37;3.10;;;7.50;99.90;;;7.42;90.24;98096.84;5354995;26;20358;-69
2024/04/17 03:24:16;;;;;;;5.07;3.40;;;7.50;99.90;;;7.37;90.24;98097.19;5368393;26;20825;-68
2024/04/17 03:26:42;;;;;;;4.93;3.43;;;7.50;99.90;;;7.32;90.23;98103.75;5375181;26;20255;-70
2024/04/17 03:29:08;;;;;;;4.27;3.33;;;7.40;99.90;;;7.32;90.33;98099.34;5345890;26;20251;-69
2024/04/17 03:31:33;;;;;;;4.70;3.20;;;7.40;99.90;;;7.09;91.75;98108.97;5368576;26;20594;-65
2024/04/17 03:33:59;;;;;;;4.10;3.00;;;7.30;99.90;;;7.10;91.33;98109.78;5380151;26;20472;-69
2024/04/17 03:36:25;;;;;;;4.60;3.30;;;7.30;99.90;;;7.12;91.44;98103.47;5368553;26;20295;-69
2024/04/17 03:38:50;;;;;;;4.30;3.20;;;7.30;99.90;;;7.11;91.87;98112.28;5384007;26;20252;-68
2024/04/17 03:41:16;;;;;;;4.07;3.03;;;7.30;99.90;;;7.15;91.87;98112.88;5369883;26;20247;-71
2024/04/17 03:43:42;;;;;;;6.57;3.20;;;7.20;99.90;;;7.16;92.08;98110.16;5381177;26;20712;-70
2024/04/17 03:46:08;;;;;;;3.70;2.90;;;7.20;99.90;;;7.28;91.95;98112.75;5380257;26;20243;-70
2024/04/17 03:48:33;;;;;;;4.30;2.80;;;7.30;99.90;;;7.28;91.40;98116.22;5350621;26;20250;-70
2024/04/17 03:50:59;;;;;;;4.37;2.80;;;7.30;99.90;;;7.36;91.62;98124.28;5390433;26;20247;-69
2024/04/17 03:53:25;;;;;;;4.40;3.20;;;7.40;99.90;;;7.39;91.43;98125.81;5383571;26;20351;-64
2024/04/17 03:55:51;;;;;;;3.83;3.10;;;7.40;99.90;;;7.33;91.17;98127.13;5342388;26;20637;-68
2024/04/17 03:58:17;;;;;;;5.00;3.17;;;7.40;99.90;;;7.29;90.90;98123.09;5349555;26;20531;-71
2024/04/17 04:00:43;;;;;;;5.20;3.23;;;7.40;99.90;;;7.24;90.73;98127.00;5368045;26;20480;-68
2024/04/17 04:03:09;;;;;;;4.70;3.77;;;7.40;99.90;;;6.93;91.37;98132.78;5384718;26;20254;-69
2024/04/17 04:05:35;;;;;;;6.80;2.80;;;7.20;99.90;;;6.94;91.17;98125.81;5365104;26;20289;-63
2024/04/17 04:08:01;;;;;;;3.50;2.67;;;7.20;99.90;;;6.90;91.13;98130.44;5383874;26;20635;-65
2024/04/17 04:10:28;;;;;;;4.20;2.97;;;7.10;99.90;;;7.03;90.93;98137.31;5369843;26;20524;-69
2024/04/17 04:12:54;;;;;;;4.07;2.70;;;7.20;99.90;;;6.96;90.71;98140.38;5380152;26;20386;-69
2024/04/17 04:15:19;;;;;;;4.43;2.60;;;7.10;99.90;;;7.01;90.35;98141.81;5376586;26;20468;-71
2024/04/17 04:17:46;;;;;;;4.10;2.90;;;7.80;99.90;;;6.92;90.28;98138.13;5391409;26;20353;-69
2024/04/17 04:20:11;;;;;;;4.37;3.23;;;7.00;99.90;;;7.03;89.92;98145.13;5349486;26;20318;-70
2024/04/17 04:22:37;;;;;;;4.20;3.10;;;7.10;99.90;;;6.87;90.10;98138.50;5368715;26;20482;-70
2024/04/17 04:25:05;;;;;;;4.20;2.93;;;7.10;99.90;;;6.93;89.46;98147.63;5345627;26;20255;-68
2024/04/17 04:27:30;;;;;;;4.57;3.30;;;7.00;99.90;;;6.68;90.48;98152.09;5371040;26;22236;-69
2024/04/17 04:29:56;;;;;;;4.50;3.30;;;7.00;99.90;;;6.82;90.55;98147.59;5378342;26;20518;-69
2024/04/17 04:32:22;;;;;;;4.57;3.27;;;7.00;99.90;;;6.81;90.73;98149.38;5363106;26;20254;-70
2024/04/17 04:34:48;;;;;;;4.80;3.60;;;7.00;99.90;;;6.67;91.40;98157.41;5355934;26;20278;-69
2024/04/17 04:37:13;;;;;;;5.07;3.47;;;6.90;99.90;;;6.64;91.71;98162.84;5375724;26;20296;-70
2024/04/17 04:39:39;;;;;;;4.30;3.20;;;6.90;99.90;;;6.71;91.89;98166.66;5365843;26;20297;-69
2024/04/17 04:42:06;;;;;;;4.80;3.43;;;6.80;99.90;;;6.80;91.89;98165.97;5369778;26;20255;-66
2024/04/17 04:44:31;;;;;;;5.80;3.60;;;6.90;99.90;;;6.88;91.65;98170.63;5371556;26;20249;-67
2024/04/17 04:46:57;;;;;;;5.53;4.07;;;7.00;99.90;;;6.88;91.51;98168.03;5404012;26;20474;-68
2024/04/17 04:49:24;;;;;;;6.20;4.00;;;7.00;99.90;;;6.92;91.46;98175.50;5363427;26;20234;-71
2024/04/17 04:51:50;;;;;;;4.80;3.70;;;7.00;99.90;;;6.91;91.46;98179.06;5400073;26;20531;-70
2024/04/17 04:54:16;;;;;;;6.60;3.67;;;7.00;99.90;;;6.99;90.97;98188.09;5376298;26;20481;-71
2024/04/17 04:56:41;;;;;;;6.20;4.10;;;7.10;99.90;;;6.92;91.38;98175.50;5371947;26;20293;-69
2024/04/17 04:59:07;;;;;;;5.30;3.90;;;7.00;99.90;;;6.88;90.47;98181.91;5356647;26;20290;-71
2024/04/17 05:01:33;;;;;;;5.20;4.07;;;7.00;99.90;;;6.90;90.67;98182.63;5363549;26;20254;-71
2024/04/17 05:04:01;;;;;;;5.70;3.80;;;7.00;99.90;;;6.94;90.72;98181.44;5371331;26;20289;-72
2024/04/17 05:06:27;;;;;;;6.73;4.17;;;7.00;99.90;;;6.99;90.73;98185.50;5359230;26;20279;-71
2024/04/17 05:08:52;;;;;;;6.60;4.13;;;7.10;99.90;;;7.07;91.12;98180.53;5348243;26;20664;-69
2024/04/17 05:11:18;;;;;;;6.97;4.60;;;7.10;99.90;;;7.09;90.92;98191.69;5373819;26;20282;-68
2024/04/17 05:13:44;;;;;;;7.97;5.10;;;7.20;99.90;;;7.10;90.77;98188.13;5364659;26;20695;-67
2024/04/17 05:16:10;;;;;;;7.20;5.77;;;7.20;99.90;;;7.13;90.36;98185.28;5376630;26;20779;-70
2024/04/17 05:18:36;;;;;;;7.30;4.70;;;7.20;99.90;;;7.21;90.33;98195.97;5365826;26;20482;-70
2024/04/17 05:21:01;;;;;;;7.67;5.30;;;7.20;99.90;;;7.22;89.97;98195.03;5372939;26;20278;-68
2024/04/17 05:23:27;;;;;;;6.77;5.17;;;7.20;99.90;;;7.21;89.71;98193.38;5375319;26;20295;-71
2024/04/17 05:25:53;;;;;;;6.40;5.10;;;7.20;99.90;;;7.19;89.85;98192.66;5344680;26;20341;-70
2024/04/17 05:28:18;;;;;;;6.67;5.07;;;7.30;99.90;;;7.08;89.93;98196.06;5359375;26;20241;-71
2024/04/17 05:30:54;;;;;;;8.17;5.70;;;7.20;99.90;;;7.07;90.43;98193.59;5375541;26;20812;-69
2024/04/17 05:33:20;;;;;;;8.50;5.40;;;7.20;99.90;;;7.20;90.30;98196.94;5362312;26;20240;-70
2024/04/17 05:35:45;;;;;;;7.70;5.30;;;7.30;99.90;;;7.21;90.41;98201.19;5376072;26;20537;-70
2024/04/17 05:38:11;;;;;;;7.13;5.20;;;7.30;99.90;;;7.27;90.20;98216.41;5345090;26;20244;-70
2024/04/17 05:40:37;;;;;;;8.43;5.90;;;7.30;99.90;;;7.31;90.29;98207.38;5369851;26;20739;-70
2024/04/17 05:43:02;;;;;;;8.90;6.60;;;7.30;99.90;;;7.35;90.65;98208.00;5359678;26;20338;-67
2024/04/17 05:45:28;;;;;;;7.90;5.83;;;7.40;99.90;;;7.37;90.95;98212.13;5411442;26;20251;-66
2024/04/17 05:47:54;;;;;;;11.10;6.10;;;7.40;99.90;;;7.51;91.56;98207.66;5340503;26;20245;-69
2024/04/17 05:50:20;;;;;;;8.77;6.73;;;7.50;99.90;;;7.58;91.10;98212.28;5372292;26;20577;-72
2024/04/17 05:52:45;;;;;;;8.93;6.10;;;7.50;99.90;;;7.62;90.79;98215.50;5371721;26;20281;-67
2024/04/17 05:55:11;;;;;;;9.30;6.47;;;7.60;99.90;;;7.70;90.22;98222.75;5359771;26;20477;-71
2024/04/17 05:57:37;;;;;;;11.33;7.00;;;7.60;99.90;;;7.57;89.75;98220.25;5370719;26;20254;-71
2024/04/17 06:00:04;;;;;;;11.30;7.43;;;7.60;99.90;;;7.63;90.35;98225.84;5361460;26;20357;-71
2024/04/17 06:02:29;;;;;;;11.40;7.30;;;7.60;99.90;;;7.74;89.65;98227.63;5350971;26;20289;-72
2024/04/17 06:04:58;;;;;;;11.93;7.07;;;7.60;99.90;;;7.78;89.76;98231.66;5362212;26;20509;-71
2024/04/17 06:07:23;;;;;;;12.10;7.37;;;7.70;99.90;;;7.99;89.82;98237.00;5337758;26;20254;-70
2024/04/17 06:09:49;;;;;;;10.80;6.77;;;7.80;99.90;;;8.16;89.10;98230.44;5371004;26;20472;-67
2024/04/17 06:12:15;;;;;;;12.30;7.60;;;7.90;99.90;;;8.25;89.08;98234.09;5358277;26;20256;-65
2024/04/17 06:14:41;;;;;;;12.87;8.30;;;8.00;99.90;;;8.43;87.96;98232.69;5369862;26;20256;-69
2024/04/17 06:17:09;;;;;;;14.63;9.00;;;9.10;99.90;;;8.41;86.45;98234.56;5363697;26;20248;-68
2024/04/17 06:19:34;;;;;;;17.47;8.30;;;8.20;99.90;;;8.40;85.24;98239.94;5375349;26;20623;-67
2024/04/17 06:22:01;;;;;;;15.20;8.37;;;8.20;99.90;;;8.39;84.75;98240.91;5384122;26;20460;-69
2024/04/17 06:24:27;;;;;;;13.57;8.67;;;8.30;99.90;;;8.32;83.47;98243.13;5366776;26;20244;-69
2024/04/17 06:26:52;;;;;;;16.60;9.63;;;8.30;99.90;;;8.30;83.74;98237.19;5356385;26;20517;-68
2024/04/17 06:29:18;;;;;;;15.10;8.60;;;8.30;99.90;;;8.50;82.77;98244.31;5408403;26;20246;-68
2024/04/17 06:31:44;;;;;;;15.43;8.33;;;8.40;99.90;;;8.73;82.57;98250.31;5377977;26;20899;-69
2024/04/17 06:34:10;;;;;;;14.37;8.10;;;8.50;99.90;;;8.91;81.06;98242.72;5399079;26;20269;-69
2024/04/17 06:36:37;;;;;;;15.70;9.17;;;8.60;99.90;;;9.12;79.55;98247.19;5363064;26;20278;-69
2024/04/17 06:39:02;;;;;;;15.63;8.00;;;8.80;99.90;;;9.25;78.23;98242.56;5377892;26;20292;-69
2024/04/17 06:41:29;;;;;;;15.10;7.40;;;8.90;99.90;;;9.21;76.29;98243.78;5371524;26;20543;-68
2024/04/17 06:43:54;;;;;;;10.03;6.70;;;9.00;99.90;;;9.17;76.42;98251.06;5376092;26;20246;-67
2024/04/17 06:46:20;;;;;;;12.83;7.63;;;9.10;99.90;;;9.13;75.61;98241.78;5374783;26;20533;-71
2024/04/17 06:48:46;;;;;;;15.87;6.60;;;9.20;99.90;;;9.03;75.10;98251.38;5379352;26;20279;-70
2024/04/17 06:51:11;;;;;;;11.13;7.10;;;9.10;99.90;;;9.00;75.34;98251.63;5373159;26;20254;-69
2024/04/17 06:53:37;;;;;;;18.03;8.53;;;9.10;99.90;;;8.93;75.73;98258.34;5382169;26;20249;-70
2024/04/17 06:56:03;;;;;;;13.13;7.03;;;9.00;99.90;;;8.79;75.05;98256.81;5362053;26;20280;-69
2024/04/17 06:58:29;;;;;;;13.63;7.50;;;8.90;99.90;;;9.17;77.11;98261.53;5360910;26;20340;-68
2024/04/17 07:00:57;;;;;;;17.00;7.27;;;9.00;99.90;;;9.62;75.93;98260.47;5381586;26;20537;-69
2024/04/17 07:03:22;;;;;;;13.33;6.83;;;9.20;99.90;;;9.95;72.09;98261.97;5374376;26;20245;-69
2024/04/17 07:05:48;;;;;;;17.10;6.37;;;9.40;99.90;;;9.82;70.37;98259.59;5368820;26;20466;-70
2024/04/17 07:08:14;;;;;;;16.67;6.53;;;9.50;99.90;;;9.95;69.51;98265.44;5370529;26;20255;-69
2024/04/17 07:10:39;;;;;;;10.20;6.40;;;9.70;99.90;;;10.13;69.14;98278.78;5351781;26;20548;-69
2024/04/17 07:13:05;;;;;;;13.10;6.50;;;9.90;99.90;;;10.17;68.42;98269.66;5404466;26;20245;-68
2024/04/17 07:15:31;;;;;;;11.10;5.67;;;10.00;99.90;;;10.27;68.19;98271.53;5371330;26;20249;-71
2024/04/17 07:17:57;;;;;;;13.33;5.90;;;10.70;99.90;;;10.35;67.60;98271.69;5378654;26;20243;-70
2024/04/17 07:20:23;;;;;;;13.33;6.60;;;10.20;99.90;;;10.13;66.04;98273.53;5369708;26;21274;-66
2024/04/17 07:22:52;;;;;;;13.37;5.50;;;10.10;99.90;;;10.13;66.23;98276.16;5376198;26;21148;-70
2024/04/17 07:25:17;;;;;;;14.07;5.83;;;10.10;99.90;;;10.08;66.21;98267.00;5372198;26;20488;-67
2024/04/17 07:27:45;;;;;;;9.93;6.00;;;10.10;99.90;;;9.68;66.27;98281.75;5373842;26;20472;-70
2024/04/17 07:30:11;;;;;;;12.00;5.93;;;9.80;99.90;;;9.66;66.57;98280.22;5374837;26;20248;-69
2024/04/17 07:32:36;;;;;;;14.23;5.90;;;9.70;99.90;;;9.94;67.02;98279.53;5379477;26;20998;-70
2024/04/17 07:35:02;;;;;;;13.30;6.33;;;9.80;99.90;;;10.35;65.68;98271.69;5388363;26;20480;-70
2024/04/17 07:37:28;;;;;;;11.47;5.60;;;10.00;99.90;;;10.52;63.88;98272.81;5368068;26;20303;-69
2024/04/17 07:39:54;;;;;;;13.80;5.83;;;10.20;99.90;;;11.20;63.42;98267.63;5381848;26;20237;-70
2024/04/17 07:42:20;;;;;;;12.90;5.83;;;10.40;99.90;;;11.55;61.00;98273.09;5368055;26;20475;-69
2024/04/17 07:44:49;;;;;;;8.40;5.10;;;10.80;99.90;;;12.00;57.47;98269.81;5369697;26;20249;-69
2024/04/17 07:47:14;;;;;;;15.93;5.00;;;11.10;99.90;;;12.02;55.32;98272.31;5374160;26;20738;-69
2024/04/17 07:49:40;;;;;;;8.80;4.83;;;11.40;99.90;;;12.49;56.19;98270.41;5381318;26;20481;-70
2024/04/17 07:52:06;;;;;;;10.03;5.00;;;11.60;99.90;;;12.79;54.83;98265.78;5339969;26;20240;-69
2024/04/17 07:54:32;;;;;;;9.20;4.70;;;11.90;99.90;;;12.43;52.12;98270.19;5382998;26;20268;-70
2024/04/17 07:56:57;;;;;;;9.57;4.90;;;12.10;99.90;;;12.56;53.55;98272.47;5367608;26;20303;-70
2024/04/17 07:59:23;;;;;;;7.53;5.00;;;12.10;99.90;;;12.86;52.51;98266.84;5373605;26;20253;-71
2024/04/17 08:01:49;;;;;;;12.27;4.97;;;12.30;99.90;;;12.57;51.39;98268.84;5369320;26;20325;-68
2024/04/17 08:04:15;;;;;;;10.27;5.40;;;12.20;99.90;;;12.56;51.58;98275.91;5367200;26;20692;-67
2024/04/17 08:06:41;;;;;;;8.03;4.83;;;12.30;99.90;;;12.25;52.54;98270.94;5373654;26;20474;-69
2024/04/17 08:09:07;;;;;;;9.10;5.40;;;12.20;99.90;;;12.13;52.44;98272.13;5385903;26;20256;-68
2024/04/17 08:11:35;;;;;;;7.60;4.83;;;12.10;99.90;;;11.72;51.73;98270.72;5370067;26;21791;-70
2024/04/17 08:14:03;;;;;;;11.57;4.87;;;11.90;99.90;;;11.33;52.57;98281.31;5369026;26;20527;-69
2024/04/17 08:16:29;;;;;;;10.27;5.60;;;11.60;99.90;;;10.98;54.59;98284.50;5376376;26;20502;-71
2024/04/17 08:18:54;;;;;;;9.63;4.77;;;11.20;99.90;;;10.64;53.32;98282.25;5388200;26;20479;-69
2024/04/17 08:21:21;;;;;;;11.13;4.73;;;11.00;99.90;;;10.63;53.92;98281.44;5368213;26;20974;-66
2024/04/17 08:23:47;;;;;;;10.33;5.00;;;10.90;99.90;;;10.40;53.90;98285.22;5371650;26;20358;-70
2024/04/17 08:26:13;;;;;;;8.00;5.10;;;10.60;99.90;;;10.44;53.94;98287.47;5370839;26;20599;-71
2024/04/17 08:28:39;;;;;;;12.80;5.00;;;10.60;99.90;;;10.87;55.12;98282.81;5368459;26;20473;-64
2024/04/17 08:31:04;;;;;;;8.43;4.80;;;10.70;99.90;;;11.07;53.02;98287.13;5402883;26;20238;-70
2024/04/17 08:33:30;;;;;;;9.00;5.20;;;10.80;99.90;;;11.22;52.92;98287.53;5375806;26;20285;-69
2024/04/17 08:35:56;;;;;;;13.03;5.43;;;10.90;99.90;;;11.53;54.30;98282.94;5379283;26;20244;-70
2024/04/17 08:38:22;;;;;;;9.23;5.17;;;11.10;99.90;;;12.03;52.89;98289.75;5375857;26;21176;-71
2024/04/17 08:40:47;;;;;;;9.40;4.90;;;11.40;99.90;;;12.63;52.13;98276.97;5373559;26;20298;-68
2024/04/17 08:43:26;;;;;;;7.70;4.20;;;12.30;99.90;;;12.00;49.39;98288.25;5338383;26;20274;-71
2024/04/17 08:45:56;;;;;;;9.50;4.50;;;11.70;99.90;;;12.06;50.33;98290.28;5373295;26;20278;-68
2024/04/17 08:48:23;;;;;;;8.67;4.33;;;11.80;99.90;;;12.37;49.21;98276.03;5374157;26;20466;-70
2024/04/17 08:50:50;;;;;;;6.53;4.20;;;12.00;99.90;;;12.93;48.58;98281.09;5377129;26;20466;-69
2024/04/17 08:53:18;;;;;;;10.33;4.00;;;12.20;99.90;;;12.96;47.42;98288.69;5351034;26;20562;-70
2024/04/17 08:55:45;;;;;;;9.73;4.40;;;12.40;99.90;;;12.92;47.16;98268.88;5358095;26;20526;-70
2024/04/17 08:58:12;;;;;;;7.50;3.83;;;12.50;99.90;;;12.58;47.57;98281.88;5378921;26;20480;-70
2024/04/17 09:00:39;;;;;;;9.83;3.63;;;12.90;99.90;;;12.15;47.04;98296.50;5347796;26;20474;-68
2024/04/17 09:03:10;;;;;;;7.50;3.60;;;12.10;99.90;;;12.07;48.27;98293.75;5369603;26;20480;-71
2024/04/17 09:05:36;;;;;;;6.20;3.40;;;12.10;99.90;;;11.79;48.46;98287.56;5369094;26;20475;-70
2024/04/17 09:08:02;;;;;;;8.50;3.50;;;11.90;99.90;;;11.55;49.33;98298.59;5376833;26;20474;-69
2024/04/17 09:10:28;;;;;;;10.60;3.97;;;11.70;99.90;;;11.59;49.55;98295.53;5375753;26;20474;-71
2024/04/17 09:12:55;;;;;;;9.83;3.53;;;11.60;99.90;;;11.88;48.75;98292.00;5363058;26;20292;-71
2024/04/17 09:15:21;;;;;;;7.93;3.50;;;11.70;99.90;;;11.60;50.11;98289.31;5350079;26;20248;-68
2024/04/17 09:17:47;;;;;;;9.40;3.57;;;11.60;99.90;;;11.82;49.65;98292.56;5341233;26;20498;-70
2024/04/17 09:20:14;;;;;;;8.20;3.90;;;11.60;99.90;;;12.10;49.10;98300.53;5343832;26;20541;-69
2024/04/17 09:22:40;;;;;;;10.00;4.50;;;11.70;99.90;;;12.00;48.81;98290.88;5346994;26;20484;-72
2024/04/17 09:25:16;;;;;;;6.50;3.30;;;11.80;99.90;;;12.20;48.65;98294.28;5379015;26;20520;-70
2024/04/17 09:27:45;;;;;;;9.83;4.60;;;11.90;99.90;;;12.26;47.37;98282.31;5374698;26;20971;-69
2024/04/17 09:30:12;;;;;;;5.70;3.50;;;12.10;99.90;;;12.41;47.63;98291.38;5368156;26;20494;-68
2024/04/17 09:32:38;;;;;;;6.60;3.20;;;12.20;99.90;;;12.57;45.53;98279.38;5369599;26;20489;-70
2024/04/17 09:35:10;;;;;;;4.77;3.13;;;12.30;99.90;;;12.46;46.49;98289.16;5369222;26;20528;-65
2024/04/17 09:37:37;;;;;;;6.73;3.30;;;12.30;99.90;;;12.42;46.99;98287.78;5348963;26;20301;-70
2024/04/17 09:40:13;;;;;;;7.40;3.53;;;12.40;99.90;;;12.13;47.95;98292.34;5347802;26;20527;-70
2024/04/17 09:42:41;;;;;;;7.70;3.10;;;12.30;99.90;;;11.95;47.87;98290.50;5400341;26;20478;-70
2024/04/17 09:45:14;;;;;;;6.07;3.10;;;12.80;99.90;;;11.91;47.92;98293.53;5359558;26;20571;-70
2024/04/17 09:47:45;;;;;;;5.77;2.97;;;11.90;99.90;;;11.70;47.78;98285.81;5384859;26;20463;-70
2024/04/17 09:50:21;;;;;;;5.90;3.30;;;11.80;99.90;;;11.90;48.27;98292.72;5367397;26;20468;-70
2024/04/17 09:52:52;;;;;;;7.83;3.73;;;11.80;99.90;;;11.78;47.27;98288.56;5381708;26;20533;-71
2024/04/17 09:55:21;;;;;;;4.90;3.23;;;11.70;99.90;;;11.83;46.43;98279.28;5373953;26;20490;-69
2024/04/17 09:57:50;;;;;;;6.97;3.13;;;11.70;99.90;;;12.03;45.59;98277.41;5373716;26;20546;-70
2024/04/17 10:00:16;;;;;;;6.57;3.30;;;11.80;99.90;;;12.21;44.88;98284.56;5373396;26;20600;-71
2024/04/17 10:02:44;;;;;;;6.60;2.80;;;11.90;99.90;;;12.49;46.13;98278.31;5370690;26;20554;-70
2024/04/17 10:05:11;;;;;;;5.47;2.73;;;12.00;99.90;;;12.44;44.98;98280.56;5375380;26;20525;-71
2024/04/17 10:07:40;;;;;;;5.60;2.97;;;12.20;99.90;;;12.41;45.00;98286.13;5361073;26;20548;-70
2024/04/17 10:10:09;;;;;;;6.97;3.20;;;12.20;99.90;;;12.06;44.85;98282.41;5356903;26;20556;-71
2024/04/17 10:12:36;;;;;;;5.57;2.57;;;12.20;99.90;;;11.90;45.48;98276.91;5374600;26;20575;-71
2024/04/17 10:15:02;;;;;;;8.60;3.00;;;12.10;99.90;;;11.85;45.41;98278.31;5382482;26;20478;-71
2024/04/17 10:17:28;;;;;;;4.83;2.90;;;12.00;99.90;;;12.16;46.09;98276.25;5379961;26;20477;-71
2024/04/17 10:19:54;;;;;;;7.33;3.00;;;12.00;99.90;;;12.60;44.24;98274.63;5415471;26;20521;-72
2024/04/17 10:22:22;;;;;;;6.23;2.63;;;12.10;99.90;;;13.04;44.05;98277.38;5347464;26;20522;-71
2024/04/17 10:24:47;;;;;;;9.40;3.00;;;12.40;99.90;;;13.38;42.08;98263.53;5375237;26;20340;-68